Mill Spring, Missouri
Current Conditions -  °F | °C
As of 7:53 PM on Monday 22 Dec 2014 (Local Time) from KPOF Reporting Station
Overcast Overcast  
Wind Chill: 53°   Ceiling: 500
Heat Index: 53°   Visibility: 7mi
Dew Point: 51°   Wind: 8mph
Humidity: 93%   Direction: 200°SSW
Pressure: 29.58"   Gusts: NA
Location:  37.06°N, 90.68°W
Report Text: KPOF 230153Z AUTO 20007KT 7SM BKN005 OVC011 12/11 A2958 RMK AO2 RAB20E40 CIG 004V009 SLP019 P0000 T01170106
Loading
Personal Weather Stations






























Interactive Weather Map New forecast layout! Learn more

10-Day Weather Forecast

Advertisements
Track Severe Weather on mobile